createdAt,value
2019-05-12T00:02:03.880Z,11.37
2019-05-12T00:04:38.525Z,11.34
2019-05-12T00:07:10.871Z,11.32
2019-05-12T00:09:43.560Z,11.29
2019-05-12T00:12:18.398Z,11.26
2019-05-12T00:14:51.390Z,11.24
2019-05-12T00:17:24.040Z,11.17
2019-05-12T00:19:58.368Z,11.16
2019-05-12T00:22:32.481Z,11.10
2019-05-12T00:25:08.764Z,11.04
2019-05-12T00:27:41.525Z,11.00
2019-05-12T00:30:34.299Z,10.98
2019-05-12T00:33:09.335Z,10.86
2019-05-12T00:35:41.613Z,10.81
2019-05-12T00:38:14.250Z,10.75
2019-05-12T00:40:48.022Z,10.68
2019-05-12T00:43:21.038Z,10.63
2019-05-12T00:45:53.295Z,10.56
2019-05-12T00:48:28.252Z,10.55
2019-05-12T00:51:00.411Z,10.48
2019-05-12T00:53:39.686Z,10.44
2019-05-12T00:56:08.513Z,10.37
2019-05-12T00:58:41.314Z,10.37
2019-05-12T01:01:13.997Z,10.29
2019-05-12T01:03:48.365Z,10.26
2019-05-12T01:06:21.401Z,10.21
2019-05-12T01:08:54.183Z,10.18
2019-05-12T01:11:28.514Z,10.14
2019-05-12T01:14:01.383Z,10.12
2019-05-12T01:16:34.407Z,10.09
2019-05-12T01:19:08.504Z,10.08
2019-05-12T01:21:41.349Z,9.98
2019-05-12T01:24:14.475Z,9.90
2019-05-12T01:26:47.688Z,9.84
2019-05-12T01:29:21.255Z,9.76
2019-05-12T01:31:58.562Z,9.65
2019-05-12T01:34:32.344Z,9.48
2019-05-12T01:37:22.634Z,9.46
2019-05-12T01:39:59.705Z,9.30
2019-05-12T01:42:32.299Z,8.99
2019-05-12T01:45:06.003Z,8.82
2019-05-12T01:47:38.682Z,8.79
2019-05-12T01:50:12.991Z,8.63
2019-05-12T01:52:47.723Z,8.58
2019-05-12T01:55:19.616Z,8.45
2019-05-12T01:57:53.594Z,8.46
2019-05-12T02:00:28.675Z,8.38
2019-05-12T02:03:01.719Z,8.30
2019-05-12T02:05:37.953Z,8.28
2019-05-12T02:08:11.469Z,8.25
2019-05-12T02:10:44.153Z,8.22
2019-05-12T02:13:18.272Z,8.23
2019-05-12T02:15:51.056Z,8.15
2019-05-12T02:18:23.728Z,8.15
2019-05-12T02:20:57.736Z,8.11
2019-05-12T02:23:30.692Z,8.05
2019-05-12T02:26:03.606Z,8.04
2019-05-12T02:28:36.281Z,8.01
2019-05-12T02:31:09.554Z,7.95
2019-05-12T02:33:44.600Z,7.87
2019-05-12T02:36:16.880Z,7.86
2019-05-12T02:38:49.236Z,7.77
2019-05-12T02:41:22.133Z,7.68
2019-05-12T02:43:56.461Z,7.63
2019-05-12T02:46:29.136Z,7.58
2019-05-12T02:49:04.853Z,7.59
2019-05-12T02:51:36.951Z,7.58
2019-05-12T02:54:09.998Z,7.55
2019-05-12T02:56:44.928Z,7.54
2019-05-12T02:59:19.096Z,7.56
2019-05-12T03:01:55.096Z,7.55
2019-05-12T03:04:27.761Z,7.55
2019-05-12T03:07:06.673Z,7.54
2019-05-12T03:09:44.533Z,7.49
2019-05-12T03:12:15.785Z,7.48
2019-05-12T03:14:48.366Z,7.47
2019-05-12T03:17:21.066Z,7.48
2019-05-12T03:19:55.653Z,7.50
2019-05-12T03:22:28.553Z,7.48
2019-05-12T03:25:11.347Z,7.39
2019-05-12T03:27:36.476Z,7.34
2019-05-12T03:30:11.315Z,7.32
2019-05-12T03:32:47.164Z,7.30
2019-05-12T03:35:18.501Z,7.29
2019-05-12T03:37:51.393Z,7.27
2019-05-12T03:40:24.919Z,7.28
2019-05-12T03:42:57.661Z,7.24
2019-05-12T03:45:30.249Z,7.21
2019-05-12T03:48:04.319Z,7.22
2019-05-12T03:50:36.958Z,7.20
2019-05-12T03:53:11.081Z,7.21
2019-05-12T03:55:47.011Z,7.22
2019-05-12T03:58:17.288Z,7.23
2019-05-12T04:00:49.913Z,7.23
2019-05-12T04:03:24.682Z,7.24
2019-05-12T04:05:56.590Z,7.25
2019-05-12T04:08:29.266Z,7.27
2019-05-12T04:11:05.026Z,7.32
2019-05-12T04:13:36.274Z,7.35
2019-05-12T04:16:08.486Z,7.34
2019-05-12T04:18:44.731Z,7.35
2019-05-12T04:21:15.843Z,7.38
2019-05-12T04:23:48.827Z,7.40
2019-05-12T04:26:25.043Z,7.36
2019-05-12T04:28:57.470Z,7.34
2019-05-12T04:31:30.153Z,7.39
2019-05-12T04:34:05.118Z,7.38
2019-05-12T04:36:37.849Z,7.36
2019-05-12T04:39:10.733Z,7.36
2019-05-12T04:41:44.667Z,7.36
2019-05-12T04:44:17.647Z,7.38
2019-05-12T04:46:50.267Z,7.37
2019-05-12T04:49:24.968Z,7.38
2019-05-12T04:51:58.851Z,7.35
2019-05-12T04:54:35.347Z,7.37
2019-05-12T04:57:06.292Z,7.34
2019-05-12T04:59:38.924Z,7.34
2019-05-12T05:02:11.616Z,7.37
2019-05-12T05:04:45.515Z,7.36
2019-05-12T05:07:18.091Z,7.34
2019-05-12T05:09:50.778Z,7.29
2019-05-12T05:12:24.010Z,7.30
2019-05-12T05:14:56.750Z,7.30
2019-05-12T05:17:29.329Z,7.29
2019-05-12T05:20:04.040Z,7.27
2019-05-12T05:22:38.039Z,7.28
2019-05-12T05:25:10.712Z,7.36
2019-05-12T05:27:44.398Z,7.35
2019-05-12T05:30:17.427Z,7.33
2019-05-12T05:32:50.113Z,7.35
2019-05-12T05:35:23.888Z,7.39
2019-05-12T05:37:56.597Z,7.43
2019-05-12T05:40:30.392Z,7.45
2019-05-12T05:43:12.261Z,7.47
2019-05-12T05:45:37.603Z,7.49
2019-05-12T05:48:10.679Z,7.52
2019-05-12T05:50:43.923Z,7.56
2019-05-12T05:53:19.536Z,7.58
2019-05-12T05:55:58.628Z,7.61
2019-05-12T05:58:26.206Z,7.60
2019-05-12T06:01:05.932Z,7.60
2019-05-12T06:03:33.845Z,7.67
2019-05-12T06:06:12.229Z,7.65
2019-05-12T06:08:41.035Z,7.68
2019-05-12T06:11:22.733Z,7.68
2019-05-12T06:13:48.030Z,7.72
2019-05-12T06:16:22.060Z,7.73
2019-05-12T06:18:54.509Z,7.75
2019-05-12T06:21:29.143Z,7.76
2019-05-12T06:24:03.330Z,7.79
2019-05-12T06:26:35.902Z,7.81
2019-05-12T06:29:11.232Z,7.87
2019-05-12T06:31:44.288Z,7.95
2019-05-12T06:34:20.893Z,7.95
2019-05-12T06:36:54.791Z,7.89
2019-05-12T06:39:25.665Z,8.00
2019-05-12T06:42:11.648Z,7.92
2019-05-12T06:44:33.500Z,8.01
2019-05-12T06:47:08.228Z,8.05
2019-05-12T06:49:40.581Z,8.01
2019-05-12T06:52:14.332Z,8.11
2019-05-12T06:54:51.404Z,8.07
2019-05-12T06:57:27.816Z,8.17
2019-05-12T06:59:55.288Z,8.18
2019-05-12T07:02:30.183Z,8.25
2019-05-12T07:05:04.370Z,8.26
2019-05-12T07:07:42.178Z,8.21
2019-05-12T07:10:15.248Z,8.25
2019-05-12T07:12:58.186Z,8.25
2019-05-12T07:15:19.821Z,8.25
2019-05-12T07:18:10.464Z,8.30
2019-05-12T07:20:43.631Z,8.34
2019-05-12T07:23:19.604Z,8.42
2019-05-12T07:25:50.575Z,8.34
2019-05-12T07:28:23.733Z,8.41
2019-05-12T07:30:57.402Z,8.48
2019-05-12T07:33:32.886Z,8.51
2019-05-12T07:36:06.552Z,8.46
2019-05-12T07:38:40.739Z,8.53
2019-05-12T07:41:15.215Z,8.57
2019-05-12T07:43:50.694Z,8.60
2019-05-12T07:46:27.830Z,8.65
2019-05-12T07:48:58.687Z,8.68
2019-05-12T07:51:38.292Z,8.69
2019-05-12T07:54:04.794Z,8.74
2019-05-12T07:56:40.645Z,8.77
2019-05-12T07:59:13.548Z,8.81
2019-05-12T08:01:51.904Z,8.70
2019-05-12T08:04:19.988Z,8.83
2019-05-12T08:06:53.801Z,8.86
2019-05-12T08:09:32.276Z,8.83
2019-05-12T08:12:04.006Z,8.96
2019-05-12T08:14:37.062Z,8.91
2019-05-12T08:17:11.928Z,9.01
2019-05-12T08:19:44.392Z,9.07
2019-05-12T08:22:18.856Z,9.07
2019-05-12T08:24:53.741Z,9.19
2019-05-12T08:27:25.901Z,9.29
2019-05-12T08:30:01.126Z,9.24
2019-05-12T08:32:33.890Z,9.30
2019-05-12T08:35:08.825Z,9.36
2019-05-12T08:37:43.940Z,9.45
2019-05-12T08:40:15.669Z,9.52
2019-05-12T08:42:48.527Z,9.50
2019-05-12T08:45:25.714Z,9.49
2019-05-12T08:47:55.498Z,9.63
2019-05-12T08:50:31.581Z,9.58
2019-05-12T08:53:04.691Z,9.61
2019-05-12T08:55:36.257Z,9.71
2019-05-12T08:58:08.888Z,9.58
2019-05-12T09:00:50.199Z,9.64
2019-05-12T09:03:20.435Z,9.67
2019-05-12T09:05:53.716Z,9.61
2019-05-12T09:08:26.823Z,9.49
2019-05-12T09:10:59.508Z,9.46
2019-05-12T09:13:33.867Z,9.52
2019-05-12T09:16:09.722Z,9.38
2019-05-12T09:18:43.458Z,9.36
2019-05-12T09:21:16.041Z,9.61
2019-05-12T09:23:48.664Z,9.36
2019-05-12T09:26:24.943Z,9.49
2019-05-12T09:28:55.628Z,9.55
2019-05-12T09:31:29.640Z,9.52
2019-05-12T09:34:05.846Z,9.35
2019-05-12T09:36:36.829Z,9.42
2019-05-12T09:39:09.417Z,9.52
2019-05-12T09:41:46.287Z,9.60
2019-05-12T09:44:20.265Z,9.72
2019-05-12T09:46:50.624Z,9.75
2019-05-12T09:49:31.447Z,9.72
2019-05-12T09:51:57.730Z,9.71
2019-05-12T09:54:35.387Z,9.87
2019-05-12T09:57:04.916Z,9.87
2019-05-12T09:59:37.605Z,9.90
2019-05-12T10:02:15.331Z,9.91
2019-05-12T10:04:44.495Z,9.99
2019-05-12T10:07:17.783Z,9.89
2019-05-12T10:09:55.137Z,10.06
2019-05-12T10:12:24.265Z,10.19
2019-05-12T10:14:56.840Z,9.94
2019-05-12T10:17:30.364Z,10.07
2019-05-12T10:20:03.340Z,9.92
2019-05-12T10:22:39.901Z,10.11
2019-05-12T10:25:14.516Z,10.38
2019-05-12T10:27:47.303Z,10.36
2019-05-12T10:30:20.299Z,10.39
2019-05-12T10:32:52.983Z,10.39
2019-05-12T10:35:26.828Z,10.32
2019-05-12T10:38:00.210Z,10.22
2019-05-12T10:40:34.296Z,10.45
2019-05-12T10:43:07.067Z,10.38
2019-05-12T10:45:39.756Z,10.29
2019-05-12T10:48:14.117Z,10.41
2019-05-12T10:50:47.000Z,10.41
2019-05-12T10:53:19.728Z,10.47
2019-05-12T10:55:54.274Z,10.26
2019-05-12T10:58:26.732Z,10.40
2019-05-12T11:01:05.266Z,10.60
2019-05-12T11:03:33.844Z,10.42
2019-05-12T11:06:07.657Z,10.39
2019-05-12T11:08:41.319Z,10.39
2019-05-12T11:11:14.729Z,10.46
2019-05-12T11:13:50.115Z,10.56
2019-05-12T11:16:30.617Z,10.67
2019-05-12T11:19:00.218Z,10.73
2019-05-12T11:21:33.533Z,11.00
2019-05-12T11:24:05.912Z,11.03
2019-05-12T11:26:38.655Z,11.36
2019-05-12T11:29:11.370Z,11.26
2019-05-12T11:31:44.249Z,11.53
2019-05-12T11:34:16.926Z,11.69
2019-05-12T11:36:49.505Z,11.71
2019-05-12T11:39:23.589Z,11.79
2019-05-12T11:41:56.106Z,11.84
2019-05-12T11:44:28.377Z,12.22
2019-05-12T11:47:03.469Z,12.18
2019-05-12T11:49:35.267Z,12.35
2019-05-12T11:52:15.384Z,12.13
2019-05-12T11:54:49.080Z,11.91
2019-05-12T11:57:20.138Z,12.23
2019-05-12T12:00:00.957Z,11.95
2019-05-12T12:02:26.247Z,11.99
2019-05-12T12:04:59.142Z,12.04
2019-05-12T12:07:33.287Z,12.23
2019-05-12T12:10:08.055Z,12.23
2019-05-12T12:12:47.562Z,12.51
2019-05-12T12:15:20.472Z,12.65
2019-05-12T12:17:53.624Z,12.67
2019-05-12T12:20:26.155Z,12.74
2019-05-12T12:23:00.107Z,12.58
2019-05-12T12:25:34.214Z,12.16
2019-05-12T12:28:07.572Z,12.08
2019-05-12T12:30:40.586Z,12.22
2019-05-12T12:33:14.386Z,12.03
2019-05-12T12:35:50.472Z,12.23
2019-05-12T12:38:21.659Z,12.42
2019-05-12T12:40:54.351Z,12.82
2019-05-12T12:43:27.030Z,12.98
2019-05-12T12:46:04.106Z,13.23
2019-05-12T12:48:36.775Z,13.16
2019-05-12T12:51:09.454Z,12.98
2019-05-12T12:53:43.781Z,12.95
2019-05-12T12:56:24.287Z,12.71
2019-05-12T12:58:50.267Z,12.32
2019-05-12T13:01:28.582Z,11.83
2019-05-12T13:03:59.439Z,11.63
2019-05-12T13:06:31.067Z,11.53
2019-05-12T13:09:16.913Z,11.20
2019-05-12T13:11:44.275Z,11.07
2019-05-12T13:14:16.109Z,10.92
2019-05-12T13:16:54.686Z,10.81
2019-05-12T13:19:24.594Z,10.61
2019-05-12T13:21:57.290Z,10.47
2019-05-12T13:24:29.848Z,10.56
2019-05-12T13:27:03.564Z,10.71
2019-05-12T13:29:39.624Z,10.79
2019-05-12T13:32:13.631Z,10.90
2019-05-12T13:34:45.631Z,10.86
2019-05-12T13:37:19.587Z,10.85
2019-05-12T13:39:56.873Z,10.93
2019-05-12T13:42:30.416Z,11.02
2019-05-12T13:45:00.598Z,11.02
2019-05-12T13:47:39.691Z,11.18
2019-05-12T13:50:13.383Z,11.15
2019-05-12T13:52:44.783Z,11.29
2019-05-12T13:55:17.461Z,11.47
2019-05-12T13:57:55.433Z,11.46
2019-05-12T14:00:24.350Z,11.60
2019-05-12T14:03:03.464Z,11.60
2019-05-12T14:05:31.359Z,11.82
2019-05-12T14:08:05.169Z,11.98
2019-05-12T14:10:43.139Z,12.28
2019-05-12T14:13:14.061Z,12.66
2019-05-12T14:15:46.367Z,12.96
2019-05-12T14:18:20.813Z,13.55
2019-05-12T14:20:58.935Z,13.45
2019-05-12T14:23:27.441Z,13.64
2019-05-12T14:26:02.195Z,13.33
2019-05-12T14:28:34.378Z,13.49
2019-05-12T14:31:06.968Z,13.55
2019-05-12T14:33:39.653Z,13.49
2019-05-12T14:36:13.749Z,13.12
2019-05-12T14:38:46.623Z,12.93
2019-05-12T14:41:19.197Z,13.03
2019-05-12T14:43:53.511Z,13.22
2019-05-12T14:46:26.102Z,13.08
2019-05-12T14:48:58.784Z,13.12
2019-05-12T14:51:33.459Z,13.45
2019-05-12T14:54:05.974Z,13.70
2019-05-12T14:56:38.667Z,14.00
2019-05-12T14:59:11.329Z,14.89
2019-05-12T15:01:53.616Z,15.28
2019-05-12T15:04:19.401Z,15.40
2019-05-12T15:06:53.387Z,15.76
2019-05-12T15:09:26.149Z,16.99
2019-05-12T15:11:58.728Z,18.41
2019-05-12T15:14:37.622Z,17.52
2019-05-12T15:17:05.721Z,17.20
2019-05-12T15:19:38.406Z,17.59
2019-05-12T15:22:12.427Z,16.23
2019-05-12T15:24:49.182Z,16.26
2019-05-12T15:27:20.445Z,15.60
2019-05-12T15:29:56.364Z,15.56
2019-05-12T15:32:27.397Z,15.51
2019-05-12T15:35:00.099Z,15.69
2019-05-12T15:37:34.969Z,15.37
2019-05-12T15:40:09.155Z,15.03
2019-05-12T15:42:41.721Z,14.93
2019-05-12T15:45:16.954Z,14.30
2019-05-12T15:47:49.756Z,13.83
2019-05-12T15:50:23.205Z,14.09
2019-05-12T15:52:56.224Z,14.04
2019-05-12T15:55:32.787Z,13.67
2019-05-12T15:58:05.414Z,13.58
2019-05-12T16:00:38.426Z,13.65
2019-05-12T16:03:11.459Z,13.97
2019-05-12T16:05:44.530Z,13.34
2019-05-12T16:08:18.557Z,13.18
2019-05-12T16:10:51.088Z,13.11
2019-05-12T16:13:24.294Z,13.12
2019-05-12T16:16:03.204Z,13.10
2019-05-12T16:18:31.518Z,12.90
2019-05-12T16:21:09.045Z,12.94
2019-05-12T16:23:39.659Z,13.01
2019-05-12T16:26:15.079Z,13.00
2019-05-12T16:28:46.544Z,13.06
2019-05-12T16:31:18.837Z,13.32
2019-05-12T16:33:53.013Z,13.19
2019-05-12T16:36:25.810Z,13.08
2019-05-12T16:39:00.106Z,13.21
2019-05-12T16:41:34.460Z,12.94
2019-05-12T16:44:16.128Z,12.83
2019-05-12T16:46:41.544Z,12.80
2019-05-12T16:49:14.109Z,12.73
2019-05-12T16:51:47.740Z,12.64
2019-05-12T16:54:20.902Z,12.47
2019-05-12T16:56:53.993Z,12.30
2019-05-12T16:59:26.574Z,12.36
2019-05-12T17:02:05.633Z,12.16
2019-05-12T17:04:40.096Z,12.18
2019-05-12T17:07:20.971Z,12.07
2019-05-12T17:10:02.967Z,12.00
2019-05-12T17:12:40.135Z,11.92
2019-05-12T17:15:17.239Z,11.77
2019-05-12T17:17:50.756Z,11.79
2019-05-12T17:20:24.454Z,11.58
2019-05-12T17:22:59.881Z,11.55
2019-05-12T17:25:30.955Z,11.50
2019-05-12T17:28:05.688Z,11.46
2019-05-12T17:30:38.044Z,11.39
2019-05-12T17:33:13.439Z,11.33
2019-05-12T17:35:45.243Z,11.26
2019-05-12T17:38:20.146Z,11.21
2019-05-12T17:40:56.432Z,11.19
2019-05-12T17:43:26.659Z,11.17
2019-05-12T17:46:01.327Z,11.09
2019-05-12T17:48:37.192Z,11.05
2019-05-12T17:51:20.259Z,11.00
2019-05-12T17:53:55.116Z,11.03
2019-05-12T17:56:38.554Z,11.10
2019-05-12T17:59:14.940Z,11.09
2019-05-12T18:01:53.723Z,10.99
2019-05-12T18:04:35.383Z,10.94
2019-05-12T18:07:19.515Z,10.89
2019-05-12T18:10:00.532Z,10.81
2019-05-12T18:12:44.746Z,10.76
2019-05-12T18:15:25.679Z,10.74
2019-05-12T18:20:40.353Z,10.59
2019-05-12T18:23:19.874Z,10.53
2019-05-12T18:26:03.211Z,10.49
2019-05-12T18:28:39.417Z,10.45
2019-05-12T18:31:18.539Z,10.44
2019-05-12T18:33:57.166Z,10.35
2019-05-12T18:36:36.935Z,10.25
2019-05-12T18:39:15.653Z,10.23
2019-05-12T18:41:54.261Z,10.20
2019-05-12T18:44:34.954Z,10.14
2019-05-12T18:47:16.648Z,10.01
2019-05-12T18:49:54.543Z,9.99
2019-05-12T18:52:39.396Z,9.99
2019-05-12T18:55:15.745Z,9.97
2019-05-12T18:58:00.712Z,9.89
2019-05-12T19:00:39.812Z,9.85
2019-05-12T19:03:21.009Z,9.78
2019-05-12T19:06:03.316Z,9.69
2019-05-12T19:08:43.071Z,9.60
2019-05-12T19:11:22.635Z,9.54
2019-05-12T19:13:57.106Z,9.45
2019-05-12T19:16:37.132Z,9.39
2019-05-12T19:19:16.801Z,9.39
2019-05-12T19:21:58.527Z,9.28
2019-05-12T19:24:27.324Z,9.21
2019-05-12T19:27:10.454Z,9.13
2019-05-12T19:29:49.806Z,9.00
2019-05-12T19:32:28.291Z,8.86
2019-05-12T19:35:09.484Z,8.75
2019-05-12T19:37:43.116Z,8.73
2019-05-12T19:40:20.643Z,8.64
2019-05-12T19:43:03.505Z,8.58
2019-05-12T19:45:33.768Z,8.57
2019-05-12T19:48:07.561Z,8.53
2019-05-12T19:50:55.021Z,8.55
2019-05-12T19:53:25.900Z,8.49
2019-05-12T19:56:03.873Z,8.42
2019-05-12T19:58:43.199Z,8.42
2019-05-12T20:01:16.312Z,8.41
2019-05-12T20:03:50.056Z,8.32
2019-05-12T20:06:24.321Z,8.26
2019-05-12T20:09:06.255Z,8.23
2019-05-12T20:11:31.692Z,8.16
2019-05-12T20:14:04.366Z,8.15
2019-05-12T20:16:37.752Z,8.16
2019-05-12T20:19:10.466Z,8.12
2019-05-12T20:21:43.844Z,8.07
2019-05-12T20:24:19.957Z,8.00
2019-05-12T20:26:53.777Z,7.98
2019-05-12T20:29:33.529Z,7.96
2019-05-12T20:32:00.559Z,7.95
2019-05-12T20:34:45.854Z,7.93
2019-05-12T20:37:13.146Z,7.93
2019-05-12T20:39:44.412Z,7.94
2019-05-12T20:42:16.079Z,7.96
2019-05-12T20:44:51.165Z,7.98
2019-05-12T20:47:23.477Z,7.95
2019-05-12T20:49:55.817Z,7.99
2019-05-12T20:52:28.502Z,8.00
2019-05-12T20:55:03.496Z,8.01
2019-05-12T20:57:40.120Z,8.06
2019-05-12T21:00:14.125Z,8.08
2019-05-12T21:02:46.523Z,8.12
2019-05-12T21:05:20.091Z,8.14
2019-05-12T21:07:55.796Z,8.18
2019-05-12T21:10:29.811Z,8.24
2019-05-12T21:13:01.143Z,8.25
2019-05-12T21:15:40.700Z,8.26
2019-05-12T21:18:07.721Z,8.30
2019-05-12T21:20:40.395Z,8.34
2019-05-12T21:23:13.511Z,8.36
2019-05-12T21:25:52.481Z,8.44
2019-05-12T21:28:21.107Z,8.45
2019-05-12T21:30:55.819Z,8.48
2019-05-12T21:33:31.287Z,8.50
2019-05-12T21:36:03.684Z,8.48
2019-05-12T21:38:36.122Z,8.58
2019-05-12T21:41:10.098Z,8.69
2019-05-12T21:43:43.764Z,8.80
2019-05-12T21:46:19.571Z,8.85
2019-05-12T21:48:53.221Z,8.90
2019-05-12T21:51:26.475Z,8.95
2019-05-12T21:53:59.149Z,8.98
2019-05-12T21:56:37.841Z,8.96
2019-05-12T21:59:06.053Z,9.00
2019-05-12T22:01:43.457Z,8.96
2019-05-12T22:04:14.377Z,8.96
2019-05-12T22:06:51.336Z,8.97
2019-05-12T22:09:23.881Z,8.97
2019-05-12T22:11:56.402Z,8.98
2019-05-12T22:14:30.487Z,8.97
2019-05-12T22:17:05.138Z,8.93
2019-05-12T22:19:38.309Z,8.96
2019-05-12T22:22:10.921Z,8.92
2019-05-12T22:24:44.131Z,8.88
2019-05-12T22:27:22.930Z,8.84
2019-05-12T22:29:51.520Z,8.78
2019-05-12T22:32:25.312Z,8.73
2019-05-12T22:34:58.194Z,8.69
2019-05-12T22:37:34.856Z,8.66
2019-05-12T22:40:15.125Z,8.65
2019-05-12T22:42:44.359Z,8.61
2019-05-12T22:45:17.006Z,8.57
2019-05-12T22:47:55.237Z,8.53
2019-05-12T22:50:27.387Z,8.51
2019-05-12T22:52:58.418Z,8.46
2019-05-12T22:55:33.296Z,8.40
2019-05-12T22:58:10.727Z,8.40
2019-05-12T23:00:44.414Z,8.39
2019-05-12T23:03:17.334Z,8.37
2019-05-12T23:05:50.947Z,8.40
2019-05-12T23:08:24.785Z,8.38
2019-05-12T23:10:58.946Z,8.35
2019-05-12T23:13:32.339Z,8.35
2019-05-12T23:16:06.258Z,8.31
2019-05-12T23:18:38.826Z,8.29
2019-05-12T23:21:13.305Z,8.33
2019-05-12T23:23:49.961Z,8.33
2019-05-12T23:26:20.565Z,8.29
2019-05-12T23:28:53.476Z,8.25
2019-05-12T23:31:30.231Z,8.22
2019-05-12T23:34:06.454Z,8.16
2019-05-12T23:36:38.990Z,8.06
2019-05-12T23:39:09.690Z,8.01
2019-05-12T23:41:43.676Z,8.00
2019-05-12T23:44:16.481Z,7.96
2019-05-12T23:46:49.160Z,7.95
2019-05-12T23:49:21.828Z,7.96
2019-05-12T23:51:54.519Z,7.99
2019-05-12T23:54:27.198Z,7.99
2019-05-12T23:57:00.072Z,7.96
2019-05-12T23:59:33.518Z,7.94
